sensor_id;sensor_type;location;lat;lon;timestamp;P1;durP1;ratioP1;P2;durP2;ratioP2
15153;SDS011;7677;41.896;25.004;2023-04-03T00:01:01;3.03;;;1.20;;
15153;SDS011;7677;41.896;25.004;2023-04-03T00:03:31;1.20;;;1.10;;
15153;SDS011;7677;41.896;25.004;2023-04-03T00:06:01;1.33;;;1.03;;
15153;SDS011;7677;41.896;25.004;2023-04-03T00:08:34;1.03;;;0.93;;
15153;SDS011;7677;41.896;25.004;2023-04-03T00:11:02;2.03;;;1.27;;
15153;SDS011;7677;41.896;25.004;2023-04-03T00:13:29;0.90;;;0.90;;
15153;SDS011;7677;41.896;25.004;2023-04-03T00:15:56;0.90;;;0.90;;
15153;SDS011;7677;41.896;25.004;2023-04-03T00:18:27;1.43;;;1.33;;
15153;SDS011;7677;41.896;25.004;2023-04-03T00:20:54;1.30;;;1.20;;
15153;SDS011;7677;41.896;25.004;2023-04-03T00:23:22;1.07;;;1.07;;
15153;SDS011;7677;41.896;25.004;2023-04-03T00:25:50;0.90;;;0.90;;
15153;SDS011;7677;41.896;25.004;2023-04-03T00:28:22;1.00;;;1.00;;
15153;SDS011;7677;41.896;25.004;2023-04-03T00:30:52;0.97;;;0.97;;
15153;SDS011;7677;41.896;25.004;2023-04-03T00:33:19;0.90;;;0.90;;
15153;SDS011;7677;41.896;25.004;2023-04-03T00:35:53;0.93;;;0.93;;
15153;SDS011;7677;41.896;25.004;2023-04-03T00:38:22;0.80;;;0.80;;
15153;SDS011;7677;41.896;25.004;2023-04-03T00:40:49;1.23;;;1.07;;
15153;SDS011;7677;41.896;25.004;2023-04-03T00:43:19;0.97;;;0.83;;
15153;SDS011;7677;41.896;25.004;2023-04-03T00:45:48;0.80;;;0.80;;
15153;SDS011;7677;41.896;25.004;2023-04-03T00:48:15;0.87;;;0.83;;
15153;SDS011;7677;41.896;25.004;2023-04-03T00:50:45;1.23;;;1.10;;
15153;SDS011;7677;41.896;25.004;2023-04-03T00:53:15;1.10;;;1.07;;
15153;SDS011;7677;41.896;25.004;2023-04-03T00:55:45;1.03;;;1.00;;
15153;SDS011;7677;41.896;25.004;2023-04-03T00:58:14;3.40;;;1.13;;
15153;SDS011;7677;41.896;25.004;2023-04-03T01:00:44;1.10;;;1.00;;
15153;SDS011;7677;41.896;25.004;2023-04-03T01:03:16;1.10;;;1.00;;
15153;SDS011;7677;41.896;25.004;2023-04-03T01:05:43;1.00;;;1.00;;
15153;SDS011;7677;41.896;25.004;2023-04-03T01:08:11;0.90;;;0.90;;
15153;SDS011;7677;41.896;25.004;2023-04-03T01:10:41;1.20;;;1.10;;
15153;SDS011;7677;41.896;25.004;2023-04-03T01:13:22;1.23;;;0.93;;
15153;SDS011;7677;41.896;25.004;2023-04-03T01:15:53;1.10;;;1.10;;
15153;SDS011;7677;41.896;25.004;2023-04-03T01:18:22;1.20;;;1.10;;
15153;SDS011;7677;41.896;25.004;2023-04-03T01:26:51;1.70;;;0.97;;
15153;SDS011;7677;41.896;25.004;2023-04-03T01:29:19;2.23;;;1.20;;
15153;SDS011;7677;41.896;25.004;2023-04-03T01:31:51;1.10;;;1.00;;
15153;SDS011;7677;41.896;25.004;2023-04-03T01:34:19;1.00;;;1.00;;
15153;SDS011;7677;41.896;25.004;2023-04-03T01:36:49;1.03;;;0.90;;
15153;SDS011;7677;41.896;25.004;2023-04-03T01:39:17;0.90;;;0.90;;
15153;SDS011;7677;41.896;25.004;2023-04-03T01:41:45;1.00;;;1.00;;
15153;SDS011;7677;41.896;25.004;2023-04-03T01:44:16;0.90;;;0.90;;
15153;SDS011;7677;41.896;25.004;2023-04-03T01:46:43;0.90;;;0.90;;
15153;SDS011;7677;41.896;25.004;2023-04-03T01:49:12;1.73;;;1.10;;
15153;SDS011;7677;41.896;25.004;2023-04-03T01:51:39;0.77;;;0.77;;
15153;SDS011;7677;41.896;25.004;2023-04-03T01:54:06;1.20;;;0.87;;
15153;SDS011;7677;41.896;25.004;2023-04-03T01:56:33;1.00;;;1.00;;
15153;SDS011;7677;41.896;25.004;2023-04-03T01:59:00;1.50;;;1.20;;
15153;SDS011;7677;41.896;25.004;2023-04-03T02:01:27;1.23;;;1.00;;
15153;SDS011;7677;41.896;25.004;2023-04-03T02:03:54;1.03;;;0.90;;
15153;SDS011;7677;41.896;25.004;2023-04-03T02:06:23;0.93;;;0.90;;
15153;SDS011;7677;41.896;25.004;2023-04-03T02:08:50;0.93;;;0.93;;
15153;SDS011;7677;41.896;25.004;2023-04-03T02:11:17;1.00;;;1.00;;
15153;SDS011;7677;41.896;25.004;2023-04-03T02:13:45;1.03;;;1.00;;
15153;SDS011;7677;41.896;25.004;2023-04-03T02:16:12;1.00;;;1.00;;
15153;SDS011;7677;41.896;25.004;2023-04-03T02:18:39;1.20;;;1.10;;
15153;SDS011;7677;41.896;25.004;2023-04-03T02:21:07;1.00;;;1.00;;
15153;SDS011;7677;41.896;25.004;2023-04-03T02:23:35;1.17;;;1.00;;
15153;SDS011;7677;41.896;25.004;2023-04-03T02:26:03;1.40;;;0.93;;
15153;SDS011;7677;41.896;25.004;2023-04-03T02:28:32;1.27;;;1.27;;
15153;SDS011;7677;41.896;25.004;2023-04-03T02:31:00;0.90;;;0.90;;
15153;SDS011;7677;41.896;25.004;2023-04-03T02:33:29;0.90;;;0.90;;
15153;SDS011;7677;41.896;25.004;2023-04-03T02:35:58;0.97;;;0.97;;
15153;SDS011;7677;41.896;25.004;2023-04-03T02:38:27;0.93;;;0.93;;
15153;SDS011;7677;41.896;25.004;2023-04-03T02:41:00;1.67;;;1.23;;
15153;SDS011;7677;41.896;25.004;2023-04-03T02:43:28;1.00;;;1.00;;
15153;SDS011;7677;41.896;25.004;2023-04-03T02:45:55;1.33;;;1.10;;
15153;SDS011;7677;41.896;25.004;2023-04-03T02:48:26;0.90;;;0.90;;
15153;SDS011;7677;41.896;25.004;2023-04-03T02:50:53;0.80;;;0.80;;
15153;SDS011;7677;41.896;25.004;2023-04-03T02:53:21;1.10;;;1.10;;
15153;SDS011;7677;41.896;25.004;2023-04-03T02:55:50;1.00;;;1.00;;
15153;SDS011;7677;41.896;25.004;2023-04-03T02:58:19;0.73;;;0.73;;
15153;SDS011;7677;41.896;25.004;2023-04-03T03:00:46;1.10;;;1.10;;
15153;SDS011;7677;41.896;25.004;2023-04-03T03:03:13;1.80;;;0.90;;
15153;SDS011;7677;41.896;25.004;2023-04-03T03:05:41;0.80;;;0.80;;
15153;SDS011;7677;41.896;25.004;2023-04-03T03:08:08;1.20;;;1.20;;
15153;SDS011;7677;41.896;25.004;2023-04-03T03:10:35;1.07;;;0.93;;
15153;SDS011;7677;41.896;25.004;2023-04-03T03:13:02;1.07;;;1.03;;
15153;SDS011;7677;41.896;25.004;2023-04-03T03:15:30;1.60;;;1.10;;
15153;SDS011;7677;41.896;25.004;2023-04-03T03:17:57;1.23;;;1.13;;
15153;SDS011;7677;41.896;25.004;2023-04-03T03:20:25;1.13;;;1.13;;
15153;SDS011;7677;41.896;25.004;2023-04-03T03:22:52;0.90;;;0.90;;
15153;SDS011;7677;41.896;25.004;2023-04-03T03:25:19;0.97;;;0.97;;
15153;SDS011;7677;41.896;25.004;2023-04-03T03:27:46;2.30;;;1.10;;
15153;SDS011;7677;41.896;25.004;2023-04-03T03:30:13;1.10;;;1.00;;
15153;SDS011;7677;41.896;25.004;2023-04-03T03:32:42;0.87;;;0.87;;
15153;SDS011;7677;41.896;25.004;2023-04-03T03:35:09;1.00;;;1.00;;
15153;SDS011;7677;41.896;25.004;2023-04-03T03:37:36;1.03;;;1.00;;
15153;SDS011;7677;41.896;25.004;2023-04-03T03:40:03;1.00;;;1.00;;
15153;SDS011;7677;41.896;25.004;2023-04-03T03:42:31;0.97;;;0.97;;
15153;SDS011;7677;41.896;25.004;2023-04-03T03:44:58;1.00;;;1.00;;
15153;SDS011;7677;41.896;25.004;2023-04-03T03:47:25;1.07;;;1.03;;
15153;SDS011;7677;41.896;25.004;2023-04-03T03:49:54;1.43;;;1.30;;
15153;SDS011;7677;41.896;25.004;2023-04-03T03:52:21;1.00;;;1.00;;
15153;SDS011;7677;41.896;25.004;2023-04-03T03:54:48;1.00;;;1.00;;
15153;SDS011;7677;41.896;25.004;2023-04-03T03:57:15;1.00;;;1.00;;
15153;SDS011;7677;41.896;25.004;2023-04-03T03:59:42;0.90;;;0.90;;
15153;SDS011;7677;41.896;25.004;2023-04-03T04:02:09;1.20;;;1.10;;
15153;SDS011;7677;41.896;25.004;2023-04-03T04:04:37;1.00;;;1.00;;
15153;SDS011;7677;41.896;25.004;2023-04-03T04:07:06;0.90;;;0.90;;
15153;SDS011;7677;41.896;25.004;2023-04-03T04:09:33;0.90;;;0.90;;
15153;SDS011;7677;41.896;25.004;2023-04-03T04:12:12;1.00;;;1.00;;
15153;SDS011;7677;41.896;25.004;2023-04-03T04:14:39;0.77;;;0.77;;
15153;SDS011;7677;41.896;25.004;2023-04-03T04:17:06;0.83;;;0.83;;
15153;SDS011;7677;41.896;25.004;2023-04-03T04:19:33;1.17;;;1.10;;
15153;SDS011;7677;41.896;25.004;2023-04-03T04:22:00;1.00;;;1.00;;
15153;SDS011;7677;41.896;25.004;2023-04-03T04:24:29;1.10;;;1.10;;
15153;SDS011;7677;41.896;25.004;2023-04-03T04:26:56;1.10;;;1.10;;
15153;SDS011;7677;41.896;25.004;2023-04-03T04:29:23;0.90;;;0.90;;
15153;SDS011;7677;41.896;25.004;2023-04-03T04:31:50;1.23;;;1.23;;
15153;SDS011;7677;41.896;25.004;2023-04-03T04:34:17;1.00;;;1.00;;
15153;SDS011;7677;41.896;25.004;2023-04-03T04:36:45;3.00;;;1.10;;
15153;SDS011;7677;41.896;25.004;2023-04-03T04:39:13;0.97;;;0.97;;
15153;SDS011;7677;41.896;25.004;2023-04-03T04:41:42;1.10;;;1.10;;
15153;SDS011;7677;41.896;25.004;2023-04-03T04:44:09;1.00;;;1.00;;
15153;SDS011;7677;41.896;25.004;2023-04-03T04:46:36;1.93;;;1.10;;
15153;SDS011;7677;41.896;25.004;2023-04-03T04:49:03;1.00;;;1.00;;
15153;SDS011;7677;41.896;25.004;2023-04-03T04:51:30;1.30;;;0.90;;
15153;SDS011;7677;41.896;25.004;2023-04-03T04:53:57;1.23;;;1.17;;
15153;SDS011;7677;41.896;25.004;2023-04-03T04:56:25;1.80;;;1.10;;
15153;SDS011;7677;41.896;25.004;2023-04-03T04:58:53;1.63;;;1.07;;
15153;SDS011;7677;41.896;25.004;2023-04-03T05:01:20;1.00;;;1.00;;
15153;SDS011;7677;41.896;25.004;2023-04-03T05:03:47;0.80;;;0.80;;
15153;SDS011;7677;41.896;25.004;2023-04-03T05:06:15;1.00;;;0.90;;
15153;SDS011;7677;41.896;25.004;2023-04-03T05:08:42;1.63;;;1.03;;
15153;SDS011;7677;41.896;25.004;2023-04-03T05:11:09;1.20;;;1.10;;
15153;SDS011;7677;41.896;25.004;2023-04-03T05:13:36;1.00;;;1.00;;
15153;SDS011;7677;41.896;25.004;2023-04-03T05:16:05;0.93;;;0.93;;
15153;SDS011;7677;41.896;25.004;2023-04-03T05:21:21;0.90;;;0.90;;
15153;SDS011;7677;41.896;25.004;2023-04-03T05:23:50;1.10;;;1.10;;
15153;SDS011;7677;41.896;25.004;2023-04-03T05:26:17;0.90;;;0.90;;
15153;SDS011;7677;41.896;25.004;2023-04-03T05:28:44;1.00;;;1.00;;
15153;SDS011;7677;41.896;25.004;2023-04-03T05:31:12;0.87;;;0.87;;
15153;SDS011;7677;41.896;25.004;2023-04-03T05:33:40;0.90;;;0.90;;
15153;SDS011;7677;41.896;25.004;2023-04-03T05:36:07;0.80;;;0.80;;
15153;SDS011;7677;41.896;25.004;2023-04-03T05:38:35;0.90;;;0.90;;
15153;SDS011;7677;41.896;25.004;2023-04-03T05:41:02;0.93;;;0.93;;
15153;SDS011;7677;41.896;25.004;2023-04-03T05:43:29;0.90;;;0.90;;
15153;SDS011;7677;41.896;25.004;2023-04-03T05:45:56;1.33;;;1.20;;
15153;SDS011;7677;41.896;25.004;2023-04-03T05:48:25;1.53;;;1.00;;
15153;SDS011;7677;41.896;25.004;2023-04-03T05:50:52;1.40;;;1.20;;
15153;SDS011;7677;41.896;25.004;2023-04-03T05:53:20;1.50;;;1.40;;
15153;SDS011;7677;41.896;25.004;2023-04-03T05:55:48;1.93;;;1.73;;
15153;SDS011;7677;41.896;25.004;2023-04-03T05:58:16;1.53;;;1.33;;
15153;SDS011;7677;41.896;25.004;2023-04-03T06:00:43;1.40;;;1.30;;
15153;SDS011;7677;41.896;25.004;2023-04-03T06:03:10;0.90;;;0.90;;
15153;SDS011;7677;41.896;25.004;2023-04-03T06:05:39;1.00;;;1.00;;
15153;SDS011;7677;41.896;25.004;2023-04-03T06:08:06;1.33;;;1.23;;
15153;SDS011;7677;41.896;25.004;2023-04-03T06:10:34;1.00;;;1.00;;
15153;SDS011;7677;41.896;25.004;2023-04-03T06:13:01;1.47;;;1.37;;
15153;SDS011;7677;41.896;25.004;2023-04-03T06:15:28;1.03;;;1.00;;
15153;SDS011;7677;41.896;25.004;2023-04-03T06:17:55;5.37;;;2.80;;
15153;SDS011;7677;41.896;25.004;2023-04-03T06:20:29;26.40;;;13.60;;
15153;SDS011;7677;41.896;25.004;2023-04-03T06:22:58;10.00;;;6.67;;
15153;SDS011;7677;41.896;25.004;2023-04-03T06:25:26;7.30;;;4.10;;
15153;SDS011;7677;41.896;25.004;2023-04-03T06:27:53;4.90;;;3.47;;
15153;SDS011;7677;41.896;25.004;2023-04-03T06:30:20;3.80;;;2.97;;
15153;SDS011;7677;41.896;25.004;2023-04-03T06:32:47;2.40;;;2.20;;
15153;SDS011;7677;41.896;25.004;2023-04-03T06:35:15;1.70;;;1.60;;
15153;SDS011;7677;41.896;25.004;2023-04-03T06:37:42;3.10;;;1.77;;
15153;SDS011;7677;41.896;25.004;2023-04-03T06:40:12;1.93;;;1.70;;
15153;SDS011;7677;41.896;25.004;2023-04-03T06:42:42;3.67;;;1.80;;
15153;SDS011;7677;41.896;25.004;2023-04-03T06:45:09;2.57;;;1.80;;
15153;SDS011;7677;41.896;25.004;2023-04-03T06:47:37;4.67;;;3.80;;
15153;SDS011;7677;41.896;25.004;2023-04-03T06:50:05;6.23;;;4.90;;
15153;SDS011;7677;41.896;25.004;2023-04-03T06:52:34;4.30;;;2.80;;
15153;SDS011;7677;41.896;25.004;2023-04-03T06:55:01;3.50;;;2.67;;
15153;SDS011;7677;41.896;25.004;2023-04-03T06:57:30;14.17;;;2.40;;
15153;SDS011;7677;41.896;25.004;2023-04-03T06:59:57;2.67;;;2.43;;
15153;SDS011;7677;41.896;25.004;2023-04-03T07:02:25;5.17;;;2.43;;
15153;SDS011;7677;41.896;25.004;2023-04-03T07:04:52;1.77;;;1.67;;
15153;SDS011;7677;41.896;25.004;2023-04-03T07:07:20;1.80;;;1.70;;
15153;SDS011;7677;41.896;25.004;2023-04-03T07:09:47;2.37;;;2.17;;
15153;SDS011;7677;41.896;25.004;2023-04-03T07:12:14;3.33;;;2.00;;
15153;SDS011;7677;41.896;25.004;2023-04-03T07:14:43;1.80;;;1.60;;
15153;SDS011;7677;41.896;25.004;2023-04-03T07:17:10;1.30;;;1.03;;
15153;SDS011;7677;41.896;25.004;2023-04-03T07:19:38;1.50;;;1.40;;
15153;SDS011;7677;41.896;25.004;2023-04-03T07:22:05;2.40;;;1.60;;
15153;SDS011;7677;41.896;25.004;2023-04-03T07:24:33;2.60;;;1.60;;
15153;SDS011;7677;41.896;25.004;2023-04-03T07:27:00;2.90;;;2.00;;
15153;SDS011;7677;41.896;25.004;2023-04-03T07:29:40;2.33;;;2.00;;
15153;SDS011;7677;41.896;25.004;2023-04-03T07:32:09;1.97;;;1.77;;
15153;SDS011;7677;41.896;25.004;2023-04-03T07:34:36;1.63;;;1.33;;
15153;SDS011;7677;41.896;25.004;2023-04-03T07:37:04;1.40;;;1.30;;
15153;SDS011;7677;41.896;25.004;2023-04-03T07:39:31;1.50;;;1.30;;
15153;SDS011;7677;41.896;25.004;2023-04-03T07:41:58;1.60;;;1.50;;
15153;SDS011;7677;41.896;25.004;2023-04-03T07:44:25;1.73;;;1.40;;
15153;SDS011;7677;41.896;25.004;2023-04-03T07:46:53;3.00;;;1.80;;
15153;SDS011;7677;41.896;25.004;2023-04-03T07:49:21;1.50;;;1.37;;
15153;SDS011;7677;41.896;25.004;2023-04-03T07:51:50;2.07;;;1.97;;
15153;SDS011;7677;41.896;25.004;2023-04-03T07:54:18;1.60;;;1.50;;
15153;SDS011;7677;41.896;25.004;2023-04-03T07:56:45;3.30;;;1.33;;
15153;SDS011;7677;41.896;25.004;2023-04-03T07:59:12;1.50;;;1.40;;
15153;SDS011;7677;41.896;25.004;2023-04-03T08:01:39;1.67;;;1.20;;
15153;SDS011;7677;41.896;25.004;2023-04-03T08:04:07;1.70;;;1.57;;
15153;SDS011;7677;41.896;25.004;2023-04-03T08:06:35;3.63;;;2.27;;
15153;SDS011;7677;41.896;25.004;2023-04-03T08:09:03;4.83;;;2.43;;
15153;SDS011;7677;41.896;25.004;2023-04-03T08:11:30;2.00;;;1.80;;
15153;SDS011;7677;41.896;25.004;2023-04-03T08:13:57;5.23;;;3.27;;
15153;SDS011;7677;41.896;25.004;2023-04-03T08:16:25;5.77;;;3.53;;
15153;SDS011;7677;41.896;25.004;2023-04-03T08:18:53;3.70;;;2.37;;
15153;SDS011;7677;41.896;25.004;2023-04-03T08:21:20;4.33;;;2.57;;
15153;SDS011;7677;41.896;25.004;2023-04-03T08:23:49;5.43;;;2.50;;
15153;SDS011;7677;41.896;25.004;2023-04-03T08:26:18;2.23;;;1.70;;
15153;SDS011;7677;41.896;25.004;2023-04-03T08:28:46;1.97;;;1.77;;
15153;SDS011;7677;41.896;25.004;2023-04-03T08:31:15;2.00;;;1.80;;
15153;SDS011;7677;41.896;25.004;2023-04-03T08:33:44;2.17;;;1.97;;
15153;SDS011;7677;41.896;25.004;2023-04-03T08:36:18;2.57;;;1.80;;
15153;SDS011;7677;41.896;25.004;2023-04-03T08:38:46;1.87;;;1.70;;
15153;SDS011;7677;41.896;25.004;2023-04-03T08:41:16;1.80;;;1.63;;
15153;SDS011;7677;41.896;25.004;2023-04-03T08:43:57;1.93;;;1.80;;
15153;SDS011;7677;41.896;25.004;2023-04-03T08:46:32;2.83;;;1.77;;
15153;SDS011;7677;41.896;25.004;2023-04-03T08:49:06;1.93;;;1.83;;
15153;SDS011;7677;41.896;25.004;2023-04-03T08:51:48;2.93;;;2.17;;
15153;SDS011;7677;41.896;25.004;2023-04-03T08:54:19;2.37;;;1.90;;
15153;SDS011;7677;41.896;25.004;2023-04-03T08:56:52;2.47;;;1.93;;
15153;SDS011;7677;41.896;25.004;2023-04-03T08:59:22;2.63;;;2.10;;
15153;SDS011;7677;41.896;25.004;2023-04-03T09:01:53;8.37;;;1.73;;
15153;SDS011;7677;41.896;25.004;2023-04-03T09:04:20;1.80;;;1.70;;
15153;SDS011;7677;41.896;25.004;2023-04-03T09:06:49;2.30;;;2.10;;
15153;SDS011;7677;41.896;25.004;2023-04-03T09:09:23;2.37;;;2.17;;
15153;SDS011;7677;41.896;25.004;2023-04-03T09:12:00;2.50;;;1.87;;
15153;SDS011;7677;41.896;25.004;2023-04-03T09:14:36;2.57;;;2.17;;
15153;SDS011;7677;41.896;25.004;2023-04-03T09:17:09;2.40;;;2.20;;
15153;SDS011;7677;41.896;25.004;2023-04-03T09:19:41;2.10;;;1.90;;
15153;SDS011;7677;41.896;25.004;2023-04-03T09:22:17;2.40;;;2.07;;
15153;SDS011;7677;41.896;25.004;2023-04-03T09:24:47;2.90;;;2.20;;
15153;SDS011;7677;41.896;25.004;2023-04-03T09:27:18;2.50;;;2.30;;
15153;SDS011;7677;41.896;25.004;2023-04-03T09:29:45;2.23;;;2.03;;
15153;SDS011;7677;41.896;25.004;2023-04-03T09:32:19;2.67;;;2.30;;
15153;SDS011;7677;41.896;25.004;2023-04-03T09:34:48;2.03;;;1.90;;
15153;SDS011;7677;41.896;25.004;2023-04-03T09:37:33;1.97;;;1.87;;
15153;SDS011;7677;41.896;25.004;2023-04-03T09:40:02;2.17;;;1.93;;
15153;SDS011;7677;41.896;25.004;2023-04-03T09:42:32;2.00;;;1.80;;
15153;SDS011;7677;41.896;25.004;2023-04-03T09:45:00;2.13;;;1.70;;
15153;SDS011;7677;41.896;25.004;2023-04-03T09:47:28;1.80;;;1.70;;
15153;SDS011;7677;41.896;25.004;2023-04-03T09:50:20;2.97;;;2.07;;
15153;SDS011;7677;41.896;25.004;2023-04-03T09:52:49;2.17;;;1.93;;
15153;SDS011;7677;41.896;25.004;2023-04-03T09:55:19;2.10;;;2.00;;
15153;SDS011;7677;41.896;25.004;2023-04-03T09:57:53;3.23;;;2.43;;
15153;SDS011;7677;41.896;25.004;2023-04-03T10:00:23;1.83;;;1.73;;
15153;SDS011;7677;41.896;25.004;2023-04-03T10:02:53;2.03;;;1.93;;
15153;SDS011;7677;41.896;25.004;2023-04-03T10:05:26;2.30;;;2.10;;
15153;SDS011;7677;41.896;25.004;2023-04-03T10:08:07;2.13;;;1.97;;
15153;SDS011;7677;41.896;25.004;2023-04-03T10:10:36;2.43;;;2.20;;
15153;SDS011;7677;41.896;25.004;2023-04-03T10:13:06;2.20;;;1.90;;
15153;SDS011;7677;41.896;25.004;2023-04-03T10:15:36;2.27;;;2.07;;
15153;SDS011;7677;41.896;25.004;2023-04-03T10:18:06;2.30;;;2.10;;
15153;SDS011;7677;41.896;25.004;2023-04-03T10:20:47;2.10;;;1.90;;
15153;SDS011;7677;41.896;25.004;2023-04-03T10:23:17;2.60;;;2.23;;
15153;SDS011;7677;41.896;25.004;2023-04-03T10:25:48;2.87;;;1.90;;
15153;SDS011;7677;41.896;25.004;2023-04-03T10:28:25;2.17;;;1.97;;
15153;SDS011;7677;41.896;25.004;2023-04-03T10:30:58;3.17;;;2.47;;
15153;SDS011;7677;41.896;25.004;2023-04-03T10:33:44;4.47;;;2.70;;
15153;SDS011;7677;41.896;25.004;2023-04-03T10:36:19;2.50;;;2.30;;
15153;SDS011;7677;41.896;25.004;2023-04-03T10:38:55;3.27;;;2.90;;
15153;SDS011;7677;41.896;25.004;2023-04-03T10:41:31;5.63;;;3.17;;
15153;SDS011;7677;41.896;25.004;2023-04-03T10:44:08;3.50;;;2.80;;
15153;SDS011;7677;41.896;25.004;2023-04-03T10:46:43;2.90;;;2.60;;
15153;SDS011;7677;41.896;25.004;2023-04-03T10:52:10;4.40;;;2.60;;
15153;SDS011;7677;41.896;25.004;2023-04-03T10:54:42;2.80;;;2.60;;
15153;SDS011;7677;41.896;25.004;2023-04-03T10:57:11;2.60;;;2.20;;
15153;SDS011;7677;41.896;25.004;2023-04-03T10:59:40;5.67;;;2.93;;
15153;SDS011;7677;41.896;25.004;2023-04-03T11:02:12;3.17;;;2.80;;
15153;SDS011;7677;41.896;25.004;2023-04-03T11:04:44;2.87;;;2.47;;
15153;SDS011;7677;41.896;25.004;2023-04-03T11:07:15;2.77;;;2.47;;
15153;SDS011;7677;41.896;25.004;2023-04-03T11:09:46;4.93;;;3.10;;
15153;SDS011;7677;41.896;25.004;2023-04-03T11:12:17;3.57;;;2.97;;
15153;SDS011;7677;41.896;25.004;2023-04-03T11:14:48;3.53;;;3.23;;
15153;SDS011;7677;41.896;25.004;2023-04-03T11:17:22;3.10;;;2.80;;
15153;SDS011;7677;41.896;25.004;2023-04-03T11:19:57;4.20;;;2.57;;
15153;SDS011;7677;41.896;25.004;2023-04-03T11:22:27;3.57;;;3.27;;
15153;SDS011;7677;41.896;25.004;2023-04-03T11:24:58;5.90;;;3.30;;
15153;SDS011;7677;41.896;25.004;2023-04-03T11:27:30;6.20;;;4.77;;
15153;SDS011;7677;41.896;25.004;2023-04-03T11:30:03;5.47;;;4.17;;
15153;SDS011;7677;41.896;25.004;2023-04-03T11:35:47;3.70;;;3.30;;
15153;SDS011;7677;41.896;25.004;2023-04-03T11:38:17;3.70;;;3.10;;
15153;SDS011;7677;41.896;25.004;2023-04-03T11:40:48;3.43;;;3.13;;
15153;SDS011;7677;41.896;25.004;2023-04-03T11:43:25;5.10;;;3.07;;
15153;SDS011;7677;41.896;25.004;2023-04-03T11:48:59;4.27;;;3.83;;
15153;SDS011;7677;41.896;25.004;2023-04-03T11:54:42;4.53;;;3.60;;
15153;SDS011;7677;41.896;25.004;2023-04-03T12:03:55;4.07;;;3.57;;
15153;SDS011;7677;41.896;25.004;2023-04-03T12:06:47;3.70;;;3.07;;
15153;SDS011;7677;41.896;25.004;2023-04-03T12:09:32;8.37;;;3.63;;
15153;SDS011;7677;41.896;25.004;2023-04-03T12:12:39;2.83;;;2.63;;
15153;SDS011;7677;41.896;25.004;2023-04-03T12:15:24;3.00;;;2.77;;
15153;SDS011;7677;41.896;25.004;2023-04-03T12:21:24;3.97;;;3.63;;
15153;SDS011;7677;41.896;25.004;2023-04-03T12:24:43;6.30;;;5.27;;
15153;SDS011;7677;41.896;25.004;2023-04-03T12:27:26;5.50;;;5.00;;
15153;SDS011;7677;41.896;25.004;2023-04-03T12:30:11;10.70;;;7.30;;
15153;SDS011;7677;41.896;25.004;2023-04-03T12:33:01;7.53;;;6.33;;
15153;SDS011;7677;41.896;25.004;2023-04-03T12:35:55;6.50;;;5.90;;
15153;SDS011;7677;41.896;25.004;2023-04-03T12:38:44;4.73;;;4.33;;
15153;SDS011;7677;41.896;25.004;2023-04-03T12:41:34;5.60;;;4.53;;
15153;SDS011;7677;41.896;25.004;2023-04-03T12:53:04;19.77;;;17.73;;
15153;SDS011;7677;41.896;25.004;2023-04-03T12:55:42;32.23;;;28.67;;
15153;SDS011;7677;41.896;25.004;2023-04-03T12:58:21;18.43;;;16.50;;
15153;SDS011;7677;41.896;25.004;2023-04-03T13:01:04;9.27;;;6.93;;
15153;SDS011;7677;41.896;25.004;2023-04-03T13:03:48;7.40;;;6.50;;
15153;SDS011;7677;41.896;25.004;2023-04-03T13:06:34;5.47;;;4.93;;
15153;SDS011;7677;41.896;25.004;2023-04-03T13:09:20;4.37;;;3.70;;
15153;SDS011;7677;41.896;25.004;2023-04-03T13:11:59;4.03;;;3.63;;
15153;SDS011;7677;41.896;25.004;2023-04-03T13:14:30;4.83;;;3.40;;
15153;SDS011;7677;41.896;25.004;2023-04-03T13:17:09;6.33;;;3.83;;
15153;SDS011;7677;41.896;25.004;2023-04-03T13:19:50;4.00;;;3.60;;
15153;SDS011;7677;41.896;25.004;2023-04-03T13:22:39;6.37;;;5.10;;
15153;SDS011;7677;41.896;25.004;2023-04-03T13:25:21;5.53;;;4.93;;
15153;SDS011;7677;41.896;25.004;2023-04-03T13:27:56;7.43;;;6.20;;
15153;SDS011;7677;41.896;25.004;2023-04-03T13:30:26;5.87;;;5.20;;
15153;SDS011;7677;41.896;25.004;2023-04-03T13:32:54;6.53;;;5.70;;
15153;SDS011;7677;41.896;25.004;2023-04-03T13:38:22;7.13;;;5.70;;
15153;SDS011;7677;41.896;25.004;2023-04-03T13:40:52;8.33;;;5.50;;
15153;SDS011;7677;41.896;25.004;2023-04-03T13:43:23;6.53;;;5.77;;
15153;SDS011;7677;41.896;25.004;2023-04-03T13:45:59;6.50;;;6.00;;
15153;SDS011;7677;41.896;25.004;2023-04-03T13:48:35;6.30;;;5.27;;
15153;SDS011;7677;41.896;25.004;2023-04-03T13:51:05;5.77;;;5.20;;
15153;SDS011;7677;41.896;25.004;2023-04-03T13:53:43;5.53;;;5.03;;
15153;SDS011;7677;41.896;25.004;2023-04-03T13:56:16;5.73;;;4.80;;
15153;SDS011;7677;41.896;25.004;2023-04-03T13:58:54;16.07;;;11.37;;
15153;SDS011;7677;41.896;25.004;2023-04-03T14:01:24;17.07;;;12.17;;
15153;SDS011;7677;41.896;25.004;2023-04-03T14:03:55;17.87;;;11.57;;
15153;SDS011;7677;41.896;25.004;2023-04-03T14:06:25;15.30;;;10.43;;
15153;SDS011;7677;41.896;25.004;2023-04-03T14:08:54;9.33;;;6.80;;
15153;SDS011;7677;41.896;25.004;2023-04-03T14:11:22;7.70;;;5.63;;
15153;SDS011;7677;41.896;25.004;2023-04-03T14:14:02;11.50;;;8.27;;
15153;SDS011;7677;41.896;25.004;2023-04-03T14:16:33;16.97;;;11.50;;
15153;SDS011;7677;41.896;25.004;2023-04-03T14:19:04;14.20;;;9.60;;
15153;SDS011;7677;41.896;25.004;2023-04-03T14:21:31;12.30;;;7.60;;
15153;SDS011;7677;41.896;25.004;2023-04-03T14:23:59;13.97;;;7.50;;
15153;SDS011;7677;41.896;25.004;2023-04-03T14:26:28;10.77;;;6.47;;
15153;SDS011;7677;41.896;25.004;2023-04-03T14:28:57;12.10;;;8.23;;
15153;SDS011;7677;41.896;25.004;2023-04-03T14:31:24;8.77;;;5.47;;
15153;SDS011;7677;41.896;25.004;2023-04-03T14:33:52;11.17;;;9.00;;
15153;SDS011;7677;41.896;25.004;2023-04-03T14:36:20;15.70;;;10.00;;
15153;SDS011;7677;41.896;25.004;2023-04-03T14:38:50;10.27;;;7.67;;
15153;SDS011;7677;41.896;25.004;2023-04-03T14:41:19;11.70;;;7.77;;
15153;SDS011;7677;41.896;25.004;2023-04-03T14:43:49;9.60;;;7.43;;
15153;SDS011;7677;41.896;25.004;2023-04-03T14:46:18;9.33;;;6.37;;
15153;SDS011;7677;41.896;25.004;2023-04-03T14:48:48;10.33;;;7.00;;
15153;SDS011;7677;41.896;25.004;2023-04-03T14:51:15;12.83;;;7.73;;
15153;SDS011;7677;41.896;25.004;2023-04-03T14:53:43;11.70;;;8.57;;
15153;SDS011;7677;41.896;25.004;2023-04-03T14:56:12;15.13;;;9.73;;
15153;SDS011;7677;41.896;25.004;2023-04-03T14:58:49;12.73;;;9.37;;
15153;SDS011;7677;41.896;25.004;2023-04-03T15:01:19;12.13;;;7.70;;
15153;SDS011;7677;41.896;25.004;2023-04-03T15:03:46;14.17;;;8.53;;
15153;SDS011;7677;41.896;25.004;2023-04-03T15:06:14;9.40;;;6.97;;
15153;SDS011;7677;41.896;25.004;2023-04-03T15:08:42;8.70;;;7.37;;
15153;SDS011;7677;41.896;25.004;2023-04-03T15:11:10;12.83;;;8.53;;
15153;SDS011;7677;41.896;25.004;2023-04-03T15:13:38;11.03;;;6.37;;
15153;SDS011;7677;41.896;25.004;2023-04-03T15:16:05;6.80;;;5.60;;
15153;SDS011;7677;41.896;25.004;2023-04-03T15:18:41;8.90;;;6.00;;
15153;SDS011;7677;41.896;25.004;2023-04-03T15:21:09;7.73;;;6.17;;
15153;SDS011;7677;41.896;25.004;2023-04-03T15:26:27;12.27;;;8.30;;
15153;SDS011;7677;41.896;25.004;2023-04-03T15:28:55;16.17;;;9.73;;
15153;SDS011;7677;41.896;25.004;2023-04-03T15:31:22;16.90;;;10.27;;
15153;SDS011;7677;41.896;25.004;2023-04-03T15:33:51;10.73;;;7.23;;
15153;SDS011;7677;41.896;25.004;2023-04-03T15:36:19;8.03;;;6.37;;
15153;SDS011;7677;41.896;25.004;2023-04-03T15:38:46;10.37;;;7.07;;
15153;SDS011;7677;41.896;25.004;2023-04-03T15:41:13;9.23;;;6.00;;
15153;SDS011;7677;41.896;25.004;2023-04-03T15:43:40;9.33;;;7.07;;
15153;SDS011;7677;41.896;25.004;2023-04-03T15:46:07;13.37;;;9.23;;
15153;SDS011;7677;41.896;25.004;2023-04-03T15:48:41;14.60;;;10.23;;
15153;SDS011;7677;41.896;25.004;2023-04-03T15:51:10;13.83;;;8.30;;